»·PEaware :: WAT563 KSAN-KLAX

WAT563 :: KSAN-KLAX

FLIGHT INFORMATION

Flight Status: Arrived
Operator:
Walker Air Transport
More flights by this operator :: More flights under this callsign
Pilot: Trevel L P. (20826)
Aircraft: DEHAVILLAND DASH 8 400
(DH8D)
More flights by this aircraft type
Origin: KSAN San Diego Intl-Lindbergh
United States
Destination: KLAX Los Angeles Intl
United States
More flights between these airports :: More routes between these airports
Route: CWARD2 SLI
File this flight plan on PilotEdge
Remarks: RMK / SIMBRIEF
Altitude:
(Current/Filed)
8,000ft
Speed:
(Current/Filed)
291kts
Departed: 08-Mar-21 07:35 PM
Arrived: 08-Mar-21 08:06 PM
Distance/Time
Traveled:
95nm/0:30
Distance/Time
To Go:
Arrived

Flight Plot

Page will automatically refresh every two minutes.

Flight plan parsing failed; only flown route is shown


Map Options




Map Legend


Flown Route
Filed Route
Departure Airport
Arrival Airport
Navaid (VOR, NDB)
Fix

Horizontal Profiles

Position Reports

Time Latitude Longitude Heading Altitude Ground
Speed
08-Mar-21 19:04 32.733850 -117.198515 154 24ft 0kts
08-Mar-21 19:05 32.733850 -117.198515 154 24ft 0kts
08-Mar-21 19:06 32.733850 -117.198515 154 24ft 0kts
08-Mar-21 19:07 32.733850 -117.198515 154 24ft 0kts
08-Mar-21 19:08 32.733850 -117.198515 154 24ft 0kts
08-Mar-21 19:09 32.733850 -117.198515 154 24ft 0kts
08-Mar-21 19:10 32.733850 -117.198515 154 24ft 0kts
08-Mar-21 19:11 32.733850 -117.198515 154 24ft 0kts
08-Mar-21 19:12 32.733850 -117.198515 154 24ft 0kts
08-Mar-21 19:13 32.733850 -117.198515 154 24ft 0kts
08-Mar-21 19:14 32.733850 -117.198515 154 24ft 0kts
08-Mar-21 19:15 32.733850 -117.198515 154 24ft 0kts
08-Mar-21 19:17 32.733850 -117.198515 154 24ft 0kts
08-Mar-21 19:18 32.733850 -117.198515 154 24ft 0kts
08-Mar-21 19:19 32.733850 -117.198515 154 24ft 0kts
08-Mar-21 19:20 32.733850 -117.198515 154 24ft 0kts
08-Mar-21 19:21 32.733850 -117.198515 154 24ft 0kts
08-Mar-21 19:22 32.733850 -117.198515 154 24ft 0kts
08-Mar-21 19:23 32.733850 -117.198515 154 24ft 0kts
08-Mar-21 19:24 32.733850 -117.198515 154 24ft 0kts
08-Mar-21 19:25 32.734381 -117.198776 157 24ft 2kts
08-Mar-21 19:26 32.734923 -117.199380 105 24ft 2kts
08-Mar-21 19:27 32.734939 -117.199443 105 24ft 0kts
08-Mar-21 19:28 32.734938 -117.199443 105 24ft 0kts
08-Mar-21 19:29 32.734493 -117.197584 105 24ft 0kts
08-Mar-21 19:30 32.733113 -117.191896 106 24ft 0kts
08-Mar-21 19:31 32.731890 -117.186962 106 24ft 16kts
08-Mar-21 19:32 32.730718 -117.182183 104 24ft 0kts
08-Mar-21 19:33 32.729474 -117.177198 105 24ft 0kts
08-Mar-21 19:34 32.730740 -117.177924 288 24ft 0kts
08-Mar-21 19:35 32.739923 -117.220063 279 1447ft 53kts
08-Mar-21 19:36 32.754028 -117.278923 287 4051ft 44kts
08-Mar-21 19:37 32.770457 -117.340209 287 6984ft 64kts
08-Mar-21 19:38 32.789457 -117.411906 287 7970ft 128kts
08-Mar-21 19:39 32.810340 -117.492380 287 7978ft 164kts
08-Mar-21 19:40 32.846486 -117.559217 323 7976ft 176kts
08-Mar-21 19:41 32.902034 -117.607103 322 7970ft 187kts
08-Mar-21 19:41 32.950003 -117.648929 322 7971ft 193kts
08-Mar-21 19:42 33.007963 -117.699468 322 7965ft 251kts
08-Mar-21 19:44 33.074506 -117.757523 322 8002ft 241kts
08-Mar-21 19:45 33.137811 -117.792209 339 8003ft 219kts
08-Mar-21 19:46 33.205097 -117.819380 339 7998ft 227kts
08-Mar-21 19:46 33.261220 -117.842095 339 7998ft 216kts
08-Mar-21 19:47 33.329091 -117.869607 339 8000ft 245kts
08-Mar-21 19:48 33.397249 -117.897278 339 7998ft 224kts
08-Mar-21 19:50 33.476949 -117.929731 340 7298ft 220kts
08-Mar-21 19:51 33.541523 -117.956158 340 6287ft 218kts
08-Mar-21 19:51 33.595348 -117.978148 340 6021ft 210kts
08-Mar-21 19:52 33.661855 -118.005238 340 5857ft 202kts
08-Mar-21 19:53 33.726304 -118.031347 340 5052ft 224kts
08-Mar-21 19:54 33.787245 -118.055177 350 4989ft 191kts
08-Mar-21 19:55 33.853782 -118.050811 2 4982ft 182kts
08-Mar-21 19:56 33.916620 -118.046044 351 4275ft 179kts
08-Mar-21 19:57 33.959689 -118.086604 312 3348ft 184kts
08-Mar-21 19:58 33.987640 -118.137808 253 2516ft 174kts
08-Mar-21 19:59 33.969431 -118.183716 248 2468ft 139kts
08-Mar-21 20:00 33.959673 -118.222313 255 2527ft 86kts
08-Mar-21 20:01 33.951918 -118.268738 260 1987ft 127kts
08-Mar-21 20:02 33.946437 -118.311085 258 1280ft 120kts
08-Mar-21 20:03 33.942571 -118.352270 262 684ft 120kts
08-Mar-21 20:04 33.938701 -118.390953 262 140ft 108kts
08-Mar-21 20:05 33.938232 -118.402306 303 135ft 17kts
08-Mar-21 20:06 33.940308 -118.403106 326 135ft 0kts
08-Mar-21 20:07 33.940402 -118.403645 276 135ft 0kts
08-Mar-21 20:08 33.940402 -118.403645 276 135ft 0kts
08-Mar-21 20:09 33.940402 -118.403645 276 135ft 0kts
08-Mar-21 20:10 33.940402 -118.403645 276 135ft 0kts
08-Mar-21 20:11 33.940402 -118.403645 276 135ft 0kts
08-Mar-21 20:12 33.940402 -118.403645 276 135ft 0kts
08-Mar-21 20:13 33.940402 -118.403645 276 135ft 0kts
08-Mar-21 20:14 33.940402 -118.403645 276 135ft 0kts
08-Mar-21 20:15 33.940402 -118.403645 276 135ft 0kts
08-Mar-21 20:16 33.940402 -118.403645 276 135ft 0kts
08-Mar-21 20:17 33.940402 -118.403645 276 135ft 0kts
08-Mar-21 20:18 33.940402 -118.403645 276 135ft 0kts
08-Mar-21 20:19 33.940402 -118.403645 276 135ft 0kts

Navigation Log

Ident Type
Flight plan parsing failed, navigation log unavailable